PWSweather.com
Personal Weather Stations
Station Observations
SUBOTICARS
SuboticaYU

SuboticaYU

Lat: 46.1296717, Lon: 19.641551

Elevation: 361

Station Type: Nexus

http://sumeteo.info

High Low Average
Temperature 40.8°F4.9°C 30.9°F-0.6°C 37.1°F2.8°C
Dew Point 37.1°F2.8°C 24.9°F-3.9°C 31.5°F-0.3°C
Winds 9.2 mph 14.8 kmh Calm Calm 4.0 mph SW6.4 kmh SW
Wind Gusts 12.7 mph20.4 kmh -- 5.0 mph8.0 kmh
Humidity 94% 65% 80%
Pressure 29.79 in1008.8 mb 29.51 in999.3 mb -
Precipitation 0.31 in7.9 mm - -
Hour Temp Dew Point Humidity Winds Wind Gusts Pressure Precip Precip Rate Daily Precip Total
12:00 AM 37.4°F3.0°C 28.2°F-2.1°C 69% 3.5 mph SSW5.6 kmh SSW 4.6 mph7.4 kmh 29.54 in1000.3 mb - 0.00 in0.0 mm 0.00 in0.0 mm
12:10 AM 37.6°F3.1°C 28.3°F-2.1°C 69% 3.5 mph SSW5.6 kmh SSW 4.6 mph7.4 kmh 29.54 in1000.3 mb - 0.00 in0.0 mm 0.00 in0.0 mm
12:15 AM 37.8°F3.2°C 28.5°F-1.9°C 69% 4.6 mph SSW7.4 kmh SSW 4.6 mph7.4 kmh 29.54 in1000.3 mb - 0.00 in0.0 mm 0.00 in0.0 mm
12:20 AM 37.9°F3.3°C 28.7°F-1.8°C 69% 3.5 mph WSW5.6 kmh WSW 3.5 mph5.6 kmh 29.54 in1000.3 mb - 0.00 in0.0 mm 0.00 in0.0 mm
12:25 AM 37.9°F3.3°C 28.7°F-1.8°C 69% 4.6 mph SSW7.4 kmh SSW 4.6 mph7.4 kmh 29.54 in1000.3 mb - 0.00 in0.0 mm 0.00 in0.0 mm
12:30 AM 37.9°F3.3°C 28.7°F-1.8°C 69% 4.6 mph SSW7.4 kmh SSW 5.8 mph9.3 kmh 29.54 in1000.3 mb - 0.00 in0.0 mm 0.00 in0.0 mm
12:35 AM 37.9°F3.3°C 28.7°F-1.8°C 69% 4.6 mph SSW7.4 kmh SSW 5.8 mph9.3 kmh 29.54 in1000.3 mb - 0.00 in0.0 mm 0.00 in0.0 mm
12:40 AM 38.1°F3.4°C 28.8°F-1.8°C 69% 4.6 mph SW7.4 kmh SW 5.8 mph9.3 kmh 29.54 in1000.3 mb - 0.00 in0.0 mm 0.00 in0.0 mm
12:45 AM 38.1°F3.4°C 28.8°F-1.8°C 69% 5.8 mph SSW9.3 kmh SSW 8.1 mph13.0 kmh 29.53 in1000.0 mb - 0.00 in0.0 mm 0.00 in0.0 mm
12:50 AM 38.5°F3.6°C 29.2°F-1.6°C 69% 4.6 mph SW7.4 kmh SW 4.6 mph7.4 kmh 29.53 in1000.0 mb - 0.00 in0.0 mm 0.00 in0.0 mm
12:55 AM 38.5°F3.6°C 29.2°F-1.6°C 69% 4.6 mph SSW7.4 kmh SSW 4.6 mph7.4 kmh 29.53 in1000.0 mb - 0.00 in0.0 mm 0.00 in0.0 mm
01:00 AM 38.7°F3.7°C 29.4°F-1.4°C 69% 5.8 mph SSW9.3 kmh SSW 5.8 mph9.3 kmh 29.53 in1000.0 mb - 0.00 in0.0 mm 0.00 in0.0 mm
01:10 AM 39.1°F3.9°C 29.4°F-1.4°C 68% 4.6 mph SSW7.4 kmh SSW 5.8 mph9.3 kmh 29.53 in1000.0 mb - 0.00 in0.0 mm 0.00 in0.0 mm
01:15 AM 39.2°F4.0°C 29.6°F-1.3°C 68% 4.6 mph SSW7.4 kmh SSW 5.8 mph9.3 kmh 29.53 in1000.0 mb - 0.00 in0.0 mm 0.00 in0.0 mm
01:20 AM 39.6°F4.2°C 29.9°F-1.2°C 68% 5.8 mph SW9.3 kmh SW 6.9 mph11.1 kmh 29.53 in1000.0 mb - 0.00 in0.0 mm 0.00 in0.0 mm
01:25 AM 39.9°F4.4°C 30.2°F-1.0°C 68% 5.8 mph SW9.3 kmh SW 9.2 mph14.8 kmh 29.53 in1000.0 mb - 0.00 in0.0 mm 0.00 in0.0 mm
01:30 AM 39.9°F4.4°C 29.8°F-1.2°C 67% 5.8 mph SW9.3 kmh SW 6.9 mph11.1 kmh 29.53 in1000.0 mb - 0.00 in0.0 mm 0.00 in0.0 mm
01:35 AM 40.2°F4.6°C 30.1°F-1.1°C 67% 5.8 mph SSW9.3 kmh SSW 5.8 mph9.3 kmh 29.53 in1000.0 mb - 0.00 in0.0 mm 0.00 in0.0 mm
01:45 AM 40.5°F4.7°C 30.0°F-1.1°C 66% 5.8 mph SW9.3 kmh SW 5.8 mph9.3 kmh 29.53 in1000.0 mb - 0.00 in0.0 mm 0.00 in0.0 mm
01:50 AM 40.8°F4.9°C 30.3°F-0.9°C 66% 6.9 mph SSW11.1 kmh SSW 8.1 mph13.0 kmh 29.53 in1000.0 mb - 0.00 in0.0 mm 0.00 in0.0 mm
01:55 AM 40.8°F4.9°C 30.3°F-0.9°C 66% 6.9 mph SSW11.1 kmh SSW 8.1 mph13.0 kmh 29.53 in1000.0 mb - 0.00 in0.0 mm 0.00 in0.0 mm
02:00 AM 40.8°F4.9°C 30.0°F-1.1°C 65% 5.8 mph SSW9.3 kmh SSW 6.9 mph11.1 kmh 29.53 in1000.0 mb - 0.00 in0.0 mm 0.00 in0.0 mm
02:10 AM 40.3°F4.6°C 29.8°F-1.2°C 66% 4.6 mph WSW7.4 kmh WSW 6.9 mph11.1 kmh 29.53 in1000.0 mb - 0.00 in0.0 mm 0.00 in0.0 mm
02:15 AM 40.1°F4.5°C 29.6°F-1.3°C 66% 3.5 mph SW5.6 kmh SW 4.6 mph7.4 kmh 29.53 in1000.0 mb - 0.00 in0.0 mm 0.00 in0.0 mm
02:20 AM 39.7°F4.3°C 29.3°F-1.5°C 66% 3.5 mph WSW5.6 kmh WSW 4.6 mph7.4 kmh 29.53 in1000.0 mb - 0.00 in0.0 mm 0.00 in0.0 mm
02:25 AM 39.6°F4.2°C 29.5°F-1.4°C 67% 3.5 mph SW5.6 kmh SW 3.5 mph5.6 kmh 29.53 in1000.0 mb - 0.00 in0.0 mm 0.00 in0.0 mm
02:30 AM 39.4°F4.1°C 29.3°F-1.5°C 67% 3.5 mph SW5.6 kmh SW 3.5 mph5.6 kmh 29.52 in999.7 mb - 0.00 in0.0 mm 0.00 in0.0 mm
02:35 AM 39.2°F4.0°C 29.2°F-1.6°C 67% 4.6 mph SSW7.4 kmh SSW 5.8 mph9.3 kmh 29.52 in999.7 mb - 0.00 in0.0 mm 0.00 in0.0 mm
02:40 AM 39.0°F3.9°C 29.3°F-1.5°C 68% 3.5 mph SW5.6 kmh SW 3.5 mph5.6 kmh 29.52 in999.7 mb - 0.00 in0.0 mm 0.00 in0.0 mm
02:45 AM 39.0°F3.9°C 29.7°F-1.3°C 69% 3.5 mph SW5.6 kmh SW 4.6 mph7.4 kmh 29.52 in999.7 mb - 0.00 in0.0 mm 0.00 in0.0 mm
02:50 AM 38.8°F3.8°C 29.5°F-1.4°C 69% 3.5 mph WSW5.6 kmh WSW 3.5 mph5.6 kmh 29.52 in999.7 mb - 0.00 in0.0 mm 0.00 in0.0 mm
02:55 AM 38.8°F3.8°C 29.5°F-1.4°C 69% 4.6 mph SSW7.4 kmh SSW 4.6 mph7.4 kmh 29.52 in999.7 mb - 0.00 in0.0 mm 0.00 in0.0 mm
03:00 AM 38.7°F3.7°C 29.7°F-1.3°C 70% 3.5 mph SW5.6 kmh SW 3.5 mph5.6 kmh 29.52 in999.7 mb - 0.00 in0.0 mm 0.00 in0.0 mm
03:10 AM 38.8°F3.8°C 29.9°F-1.2°C 70% 3.5 mph SW5.6 kmh SW 4.6 mph7.4 kmh 29.52 in999.7 mb - 0.00 in0.0 mm 0.00 in0.0 mm
03:15 AM 39.0°F3.9°C 30.1°F-1.1°C 70% 4.6 mph SSW7.4 kmh SSW 4.6 mph7.4 kmh 29.52 in999.7 mb - 0.00 in0.0 mm 0.00 in0.0 mm
03:20 AM 39.2°F4.0°C 30.2°F-1.0°C 70% 3.5 mph SSW5.6 kmh SSW 4.6 mph7.4 kmh 29.52 in999.7 mb - 0.00 in0.0 mm 0.00 in0.0 mm
03:25 AM 39.2°F4.0°C 30.2°F-1.0°C 70% 4.6 mph SW7.4 kmh SW 4.6 mph7.4 kmh 29.52 in999.7 mb - 0.00 in0.0 mm 0.00 in0.0 mm
03:30 AM 39.2°F4.0°C 30.2°F-1.0°C 70% 3.5 mph SSW5.6 kmh SSW 4.6 mph7.4 kmh 29.51 in999.3 mb - 0.00 in0.0 mm 0.00 in0.0 mm
03:35 AM 39.4°F4.1°C 30.4°F-0.9°C 70% 3.5 mph SSW5.6 kmh SSW 3.5 mph5.6 kmh 29.51 in999.3 mb - 0.00 in0.0 mm 0.00 in0.0 mm
03:40 AM 39.6°F4.2°C 30.2°F-1.0°C 69% 4.6 mph SSW7.4 kmh SSW 5.8 mph9.3 kmh 29.51 in999.3 mb - 0.00 in0.0 mm 0.00 in0.0 mm
03:45 AM 39.9°F4.4°C 30.6°F-0.8°C 69% 4.6 mph SSW7.4 kmh SSW 5.8 mph9.3 kmh 29.52 in999.7 mb - 0.00 in0.0 mm 0.00 in0.0 mm
03:50 AM 40.1°F4.5°C 30.7°F-0.7°C 69% 4.6 mph SW7.4 kmh SW 6.9 mph11.1 kmh 29.52 in999.7 mb - 0.00 in0.0 mm 0.00 in0.0 mm
03:55 AM 40.3°F4.6°C 30.6°F-0.8°C 68% 3.5 mph SSW5.6 kmh SSW 3.5 mph5.6 kmh 29.52 in999.7 mb - 0.00 in0.0 mm 0.00 in0.0 mm
04:00 AM 40.3°F4.6°C 30.6°F-0.8°C 68% 3.5 mph SSW5.6 kmh SSW 3.5 mph5.6 kmh 29.52 in999.7 mb - 0.00 in0.0 mm 0.00 in0.0 mm
04:10 AM 40.1°F4.5°C 30.4°F-0.9°C 68% 3.5 mph SW5.6 kmh SW 3.5 mph5.6 kmh 29.52 in999.7 mb - 0.00 in0.0 mm 0.00 in0.0 mm
04:15 AM 40.1°F4.5°C 30.4°F-0.9°C 68% 2.3 mph SSW3.7 kmh SSW 3.5 mph5.6 kmh 29.52 in999.7 mb - 0.00 in0.0 mm 0.00 in0.0 mm
04:20 AM 39.9°F4.4°C 30.6°F-0.8°C 69% 3.5 mph SSW5.6 kmh SSW 3.5 mph5.6 kmh 29.52 in999.7 mb - 0.00 in0.0 mm 0.00 in0.0 mm
04:25 AM 39.9°F4.4°C 30.6°F-0.8°C 69% 3.5 mph SSW5.6 kmh SSW 3.5 mph5.6 kmh 29.52 in999.7 mb - 0.00 in0.0 mm 0.00 in0.0 mm
04:30 AM 39.8°F4.3°C 30.4°F-0.9°C 69% 2.3 mph SSW3.7 kmh SSW 3.5 mph5.6 kmh 29.51 in999.3 mb - 0.00 in0.0 mm 0.00 in0.0 mm
04:35 AM 39.7°F4.3°C 30.8°F-0.7°C 70% 1.2 mph SSW1.9 kmh SSW 2.3 mph3.7 kmh 29.51 in999.3 mb - 0.00 in0.0 mm 0.00 in0.0 mm
04:40 AM 39.6°F4.2°C 30.6°F-0.8°C 70% Calm Calm -- 29.51 in999.3 mb - 0.00 in0.0 mm 0.00 in0.0 mm
04:45 AM 39.6°F4.2°C 30.9°F-0.6°C 71% Calm Calm -- 29.52 in999.7 mb - 0.00 in0.0 mm 0.00 in0.0 mm
04:50 AM 39.4°F4.1°C 31.1°F-0.5°C 72% Calm Calm -- 29.52 in999.7 mb - 0.00 in0.0 mm 0.00 in0.0 mm
04:55 AM 38.8°F3.8°C 31.6°F-0.2°C 75% 1.2 mph SSW1.9 kmh SSW 2.3 mph3.7 kmh 29.52 in999.7 mb - 0.00 in0.0 mm 0.00 in0.0 mm
05:00 AM 38.9°F3.8°C 31.3°F-0.4°C 74% 1.2 mph SSW1.9 kmh SSW 1.2 mph1.9 kmh 29.51 in999.3 mb - 0.00 in0.0 mm 0.00 in0.0 mm
05:10 AM 38.8°F3.8°C 32.6°F0.3°C 78% 2.3 mph NE3.7 kmh NE 2.3 mph3.7 kmh 29.51 in999.3 mb - 0.00 in0.0 mm 0.00 in0.0 mm
05:15 AM 38.8°F3.8°C 31.9°F-0.1°C 76% 2.3 mph NW3.7 kmh NW 2.3 mph3.7 kmh 29.52 in999.7 mb - 0.01 in0.3 mm 0.01 in0.3 mm
05:20 AM 38.8°F3.8°C 32.6°F0.3°C 78% 3.5 mph NNW5.6 kmh NNW 3.5 mph5.6 kmh 29.52 in999.7 mb - 0.01 in0.3 mm 0.01 in0.3 mm
05:25 AM 38.8°F3.8°C 33.2°F0.7°C 80% 2.3 mph NNW3.7 kmh NNW 1.2 mph1.9 kmh 29.52 in999.7 mb - 0.01 in0.3 mm 0.01 in0.3 mm
05:30 AM 38.8°F3.8°C 33.2°F0.7°C 80% 3.5 mph N5.6 kmh N 3.5 mph5.6 kmh 29.52 in999.7 mb - 0.01 in0.3 mm 0.01 in0.3 mm
05:35 AM 38.8°F3.8°C 33.8°F1.0°C 82% 3.5 mph NNE5.6 kmh NNE 3.5 mph5.6 kmh 29.52 in999.7 mb - 0.03 in0.8 mm 0.03 in0.8 mm
05:40 AM 38.8°F3.8°C 33.5°F0.8°C 81% 2.3 mph ENE3.7 kmh ENE 2.3 mph3.7 kmh 29.52 in999.7 mb - 0.03 in0.8 mm 0.03 in0.8 mm
05:45 AM 38.7°F3.7°C 33.0°F0.6°C 80% 3.5 mph NNE5.6 kmh NNE 3.5 mph5.6 kmh 29.52 in999.7 mb - 0.04 in1.0 mm 0.04 in1.0 mm
05:50 AM 38.7°F3.7°C 33.6°F0.9°C 82% 3.5 mph NNE5.6 kmh NNE 4.6 mph7.4 kmh 29.52 in999.7 mb - 0.04 in1.0 mm 0.04 in1.0 mm
05:55 AM 38.5°F3.6°C 32.8°F0.4°C 80% 3.5 mph NNE5.6 kmh NNE 3.5 mph5.6 kmh 29.52 in999.7 mb - 0.04 in1.0 mm 0.04 in1.0 mm
06:00 AM 38.5°F3.6°C 33.8°F1.0°C 83% 3.5 mph NE5.6 kmh NE 4.6 mph7.4 kmh 29.52 in999.7 mb - 0.04 in1.0 mm 0.04 in1.0 mm
06:10 AM 38.5°F3.6°C 34.7°F1.5°C 86% 2.3 mph NNW3.7 kmh NNW 2.3 mph3.7 kmh 29.52 in999.7 mb - 0.04 in1.0 mm 0.04 in1.0 mm
06:15 AM 38.7°F3.7°C 34.8°F1.6°C 86% 2.3 mph N3.7 kmh N 3.5 mph5.6 kmh 29.52 in999.7 mb - 0.03 in0.8 mm 0.04 in1.0 mm
06:20 AM 38.5°F3.6°C 33.8°F1.0°C 83% 3.5 mph NNW5.6 kmh NNW 3.5 mph5.6 kmh 29.52 in999.7 mb - 0.03 in0.8 mm 0.04 in1.0 mm
06:25 AM 38.3°F3.5°C 33.3°F0.7°C 82% Calm Calm 1.2 mph1.9 kmh 29.52 in999.7 mb - 0.03 in0.8 mm 0.04 in1.0 mm
06:30 AM 38.3°F3.5°C 33.0°F0.6°C 81% 1.2 mph N1.9 kmh N 1.2 mph1.9 kmh 29.54 in1000.3 mb - 0.03 in0.8 mm 0.04 in1.0 mm
06:35 AM 38.3°F3.5°C 33.0°F0.6°C 81% Calm Calm -- 29.54 in1000.3 mb - 0.01 in0.3 mm 0.04 in1.0 mm
06:40 AM 38.3°F3.5°C 32.7°F0.4°C 80% 2.3 mph NE3.7 kmh NE 2.3 mph3.7 kmh 29.54 in1000.3 mb - 0.01 in0.3 mm 0.04 in1.0 mm
06:45 AM 38.1°F3.4°C 32.5°F0.3°C 80% 2.3 mph ENE3.7 kmh ENE 3.5 mph5.6 kmh 29.54 in1000.3 mb - 0.01 in0.3 mm 0.04 in1.0 mm
06:50 AM 38.1°F3.4°C 32.5°F0.3°C 80% 2.3 mph NNE3.7 kmh NNE 3.5 mph5.6 kmh 29.54 in1000.3 mb - 0.00 in0.0 mm 0.04 in1.0 mm
06:55 AM 38.7°F3.7°C 33.3°F0.7°C 81% 3.5 mph NNE5.6 kmh NNE 4.6 mph7.4 kmh 29.54 in1000.3 mb - 0.00 in0.0 mm 0.04 in1.0 mm
07:00 AM 39.1°F3.9°C 34.3°F1.3°C 83% 3.5 mph NNE5.6 kmh NNE 3.5 mph5.6 kmh 29.54 in1000.3 mb - 0.00 in0.0 mm 0.04 in1.0 mm
07:10 AM 38.7°F3.7°C 33.3°F0.7°C 81% 3.5 mph NE5.6 kmh NE 3.5 mph5.6 kmh 29.54 in1000.3 mb - 0.00 in0.0 mm 0.04 in1.0 mm
07:15 AM 38.7°F3.7°C 33.0°F0.6°C 80% 3.5 mph NE5.6 kmh NE 3.5 mph5.6 kmh 29.54 in1000.3 mb - 0.00 in0.0 mm 0.04 in1.0 mm
07:20 AM 38.5°F3.6°C 32.8°F0.4°C 80% 3.5 mph NNE5.6 kmh NNE 2.3 mph3.7 kmh 29.54 in1000.3 mb - 0.00 in0.0 mm 0.04 in1.0 mm
07:25 AM 38.5°F3.6°C 32.8°F0.4°C 80% 2.3 mph NE3.7 kmh NE 3.5 mph5.6 kmh 29.54 in1000.3 mb - 0.00 in0.0 mm 0.04 in1.0 mm
07:30 AM 38.5°F3.6°C 33.2°F0.7°C 81% 2.3 mph NNE3.7 kmh NNE 2.3 mph3.7 kmh 29.55 in1000.7 mb - 0.00 in0.0 mm 0.04 in1.0 mm
07:35 AM 38.7°F3.7°C 33.3°F0.7°C 81% 2.3 mph NE3.7 kmh NE 3.5 mph5.6 kmh 29.55 in1000.7 mb - 0.00 in0.0 mm 0.04 in1.0 mm
07:40 AM 38.7°F3.7°C 33.3°F0.7°C 81% 2.3 mph NE3.7 kmh NE 2.3 mph3.7 kmh 29.55 in1000.7 mb - 0.00 in0.0 mm 0.04 in1.0 mm
07:45 AM 38.7°F3.7°C 33.0°F0.6°C 80% 2.3 mph NNE3.7 kmh NNE 2.3 mph3.7 kmh 29.55 in1000.7 mb - 0.00 in0.0 mm 0.04 in1.0 mm
07:50 AM 38.7°F3.7°C 33.3°F0.7°C 81% 2.3 mph NE3.7 kmh NE 3.5 mph5.6 kmh 29.55 in1000.7 mb - 0.00 in0.0 mm 0.04 in1.0 mm
07:55 AM 38.7°F3.7°C 33.3°F0.7°C 81% 2.3 mph NE3.7 kmh NE 2.3 mph3.7 kmh 29.55 in1000.7 mb - 0.00 in0.0 mm 0.04 in1.0 mm
08:00 AM 38.8°F3.8°C 34.4°F1.3°C 84% 3.5 mph NE5.6 kmh NE 4.6 mph7.4 kmh 29.56 in1001.0 mb - 0.00 in0.0 mm 0.04 in1.0 mm
08:10 AM 39.0°F3.9°C 35.5°F1.9°C 87% 3.5 mph N5.6 kmh N 4.6 mph7.4 kmh 29.56 in1001.0 mb - 0.00 in0.0 mm 0.04 in1.0 mm
08:15 AM 39.2°F4.0°C 35.9°F2.2°C 88% 4.6 mph N7.4 kmh N 5.8 mph9.3 kmh 29.56 in1001.0 mb - 0.02 in0.5 mm 0.06 in1.5 mm
08:20 AM 39.0°F3.9°C 36.1°F2.3°C 89% 4.6 mph NNE7.4 kmh NNE 5.8 mph9.3 kmh 29.56 in1001.0 mb - 0.02 in0.5 mm 0.06 in1.5 mm
08:25 AM 39.0°F3.9°C 35.8°F2.1°C 88% 3.5 mph NNE5.6 kmh NNE 3.5 mph5.6 kmh 29.56 in1001.0 mb - 0.02 in0.5 mm 0.06 in1.5 mm
08:30 AM 38.8°F3.8°C 35.3°F1.8°C 87% 4.6 mph NNE7.4 kmh NNE 5.8 mph9.3 kmh 29.58 in1001.7 mb - 0.02 in0.5 mm 0.06 in1.5 mm
08:35 AM 38.8°F3.8°C 35.3°F1.8°C 87% 5.8 mph NNE9.3 kmh NNE 6.9 mph11.1 kmh 29.58 in1001.7 mb - 0.02 in0.5 mm 0.06 in1.5 mm
08:40 AM 38.7°F3.7°C 35.1°F1.7°C 87% 4.6 mph NE7.4 kmh NE 6.9 mph11.1 kmh 29.58 in1001.7 mb - 0.02 in0.5 mm 0.06 in1.5 mm
08:45 AM 38.7°F3.7°C 34.8°F1.6°C 86% 4.6 mph NE7.4 kmh NE 3.5 mph5.6 kmh 29.58 in1001.7 mb - 0.02 in0.5 mm 0.06 in1.5 mm
08:50 AM 38.5°F3.6°C 34.9°F1.6°C 87% 3.5 mph NNE5.6 kmh NNE 3.5 mph5.6 kmh 29.58 in1001.7 mb - 0.02 in0.5 mm 0.06 in1.5 mm
08:55 AM 38.5°F3.6°C 34.9°F1.6°C 87% 3.5 mph NE5.6 kmh NE 3.5 mph5.6 kmh 29.58 in1001.7 mb - 0.02 in0.5 mm 0.06 in1.5 mm
09:00 AM 38.4°F3.6°C 34.8°F1.6°C 87% 4.6 mph NE7.4 kmh NE 5.8 mph9.3 kmh 29.58 in1001.7 mb - 0.03 in0.8 mm 0.07 in1.8 mm
09:10 AM 38.3°F3.5°C 35.1°F1.7°C 88% 3.5 mph N5.6 kmh N 4.6 mph7.4 kmh 29.58 in1001.7 mb - 0.03 in0.8 mm 0.07 in1.8 mm
09:15 AM 38.3°F3.5°C 35.1°F1.7°C 88% 3.5 mph N5.6 kmh N 4.6 mph7.4 kmh 29.59 in1002.0 mb - 0.01 in0.3 mm 0.07 in1.8 mm
09:20 AM 38.3°F3.5°C 35.3°F1.8°C 89% 3.5 mph N5.6 kmh N 3.5 mph5.6 kmh 29.59 in1002.0 mb - 0.03 in0.8 mm 0.09 in2.3 mm
09:25 AM 38.3°F3.5°C 35.6°F2.0°C 90% 3.5 mph NNW5.6 kmh NNW 4.6 mph7.4 kmh 29.59 in1002.0 mb - 0.04 in1.0 mm 0.10 in2.5 mm
09:30 AM 38.1°F3.4°C 35.7°F2.1°C 91% 3.5 mph N5.6 kmh N 4.6 mph7.4 kmh 29.59 in1002.0 mb - 0.04 in1.0 mm 0.10 in2.5 mm
09:35 AM 38.1°F3.4°C 35.7°F2.1°C 91% 5.8 mph NE9.3 kmh NE 5.8 mph9.3 kmh 29.59 in1002.0 mb - 0.06 in1.5 mm 0.12 in3.0 mm
09:40 AM 38.1°F3.4°C 35.7°F2.1°C 91% 4.6 mph NE7.4 kmh NE 6.9 mph11.1 kmh 29.59 in1002.0 mb - 0.06 in1.5 mm 0.12 in3.0 mm
09:45 AM 38.1°F3.4°C 35.7°F2.1°C 91% 4.6 mph NE7.4 kmh NE 4.6 mph7.4 kmh 29.59 in1002.0 mb - 0.07 in1.8 mm 0.13 in3.3 mm
09:50 AM 38.1°F3.4°C 35.7°F2.1°C 91% 4.6 mph N7.4 kmh N 4.6 mph7.4 kmh 29.59 in1002.0 mb - 0.07 in1.8 mm 0.13 in3.3 mm
09:55 AM 38.1°F3.4°C 35.4°F1.9°C 90% 6.9 mph NNE11.1 kmh NNE 9.2 mph14.8 kmh 29.59 in1002.0 mb - 0.09 in2.3 mm 0.15 in3.8 mm
10:00 AM 38.1°F3.4°C 35.4°F1.9°C 90% 3.5 mph N5.6 kmh N 5.8 mph9.3 kmh 29.60 in1002.4 mb - 0.09 in2.3 mm 0.16 in4.1 mm
10:10 AM 38.1°F3.4°C 35.7°F2.1°C 91% 5.8 mph N9.3 kmh N 6.9 mph11.1 kmh 29.60 in1002.4 mb - 0.11 in2.8 mm 0.19 in4.8 mm
10:15 AM 38.1°F3.4°C 35.4°F1.9°C 90% 5.8 mph NNE9.3 kmh NNE 8.1 mph13.0 kmh 29.60 in1002.4 mb - 0.11 in2.8 mm 0.19 in4.8 mm
10:20 AM 38.1°F3.4°C 35.4°F1.9°C 90% 4.6 mph NE7.4 kmh NE 5.8 mph9.3 kmh 29.60 in1002.4 mb - 0.10 in2.5 mm 0.20 in5.1 mm
10:25 AM 38.1°F3.4°C 35.4°F1.9°C 90% 3.5 mph N5.6 kmh N 4.6 mph7.4 kmh 29.60 in1002.4 mb - 0.09 in2.3 mm 0.20 in5.1 mm
10:30 AM 38.1°F3.4°C 35.7°F2.1°C 91% 4.6 mph NNE7.4 kmh NNE 5.8 mph9.3 kmh 29.60 in1002.4 mb - 0.11 in2.8 mm 0.22 in5.6 mm
10:35 AM 38.2°F3.4°C 35.8°F2.1°C 91% 4.6 mph N7.4 kmh N 5.8 mph9.3 kmh 29.60 in1002.4 mb - 0.11 in2.8 mm 0.22 in5.6 mm
10:40 AM 38.3°F3.5°C 35.9°F2.2°C 91% 3.5 mph NNE5.6 kmh NNE 3.5 mph5.6 kmh 29.60 in1002.4 mb - 0.09 in2.3 mm 0.22 in5.6 mm
10:45 AM 38.3°F3.5°C 35.9°F2.2°C 91% 3.5 mph NNE5.6 kmh NNE 6.9 mph11.1 kmh 29.60 in1002.4 mb - 0.09 in2.3 mm 0.23 in5.8 mm
10:50 AM 38.3°F3.5°C 36.2°F2.3°C 92% 3.5 mph NNE5.6 kmh NNE 3.5 mph5.6 kmh 29.60 in1002.4 mb - 0.09 in2.3 mm 0.23 in5.8 mm
10:55 AM 38.5°F3.6°C 36.4°F2.4°C 92% 3.5 mph N5.6 kmh N 4.6 mph7.4 kmh 29.60 in1002.4 mb - 0.07 in1.8 mm 0.23 in5.8 mm
11:00 AM 38.5°F3.6°C 36.4°F2.4°C 92% 3.5 mph NNE5.6 kmh NNE 4.6 mph7.4 kmh 29.60 in1002.4 mb - 0.06 in1.5 mm 0.23 in5.8 mm
11:10 AM 38.7°F3.7°C 37.1°F2.8°C 94% 3.5 mph NNW5.6 kmh NNW 4.6 mph7.4 kmh 29.60 in1002.4 mb - 0.06 in1.5 mm 0.23 in5.8 mm
11:15 AM 38.7°F3.7°C 37.1°F2.8°C 94% 3.5 mph NNW5.6 kmh NNW 3.5 mph5.6 kmh 29.60 in1002.4 mb - 0.04 in1.0 mm 0.23 in5.8 mm
11:20 AM 38.7°F3.7°C 37.1°F2.8°C 94% 3.5 mph NNW5.6 kmh NNW 3.5 mph5.6 kmh 29.60 in1002.4 mb - 0.05 in1.3 mm 0.25 in6.4 mm
11:25 AM 38.8°F3.8°C 36.7°F2.6°C 92% 3.5 mph N5.6 kmh N 5.8 mph9.3 kmh 29.60 in1002.4 mb - 0.05 in1.3 mm 0.25 in6.4 mm
11:30 AM 38.8°F3.8°C 36.7°F2.6°C 92% 5.8 mph NNE9.3 kmh NNE 5.8 mph9.3 kmh 29.60 in1002.4 mb - 0.05 in1.3 mm 0.25 in6.4 mm
11:35 AM 38.8°F3.8°C 36.7°F2.6°C 92% 3.5 mph N5.6 kmh N 3.5 mph5.6 kmh 29.60 in1002.4 mb - 0.03 in0.8 mm 0.25 in6.4 mm
11:40 AM 38.8°F3.8°C 36.7°F2.6°C 92% 3.5 mph N5.6 kmh N 4.6 mph7.4 kmh 29.60 in1002.4 mb - 0.03 in0.8 mm 0.25 in6.4 mm
11:45 AM 38.8°F3.8°C 36.7°F2.6°C 92% 3.5 mph N5.6 kmh N 3.5 mph5.6 kmh 29.60 in1002.4 mb - 0.02 in0.5 mm 0.25 in6.4 mm
11:50 AM 38.8°F3.8°C 36.7°F2.6°C 92% 3.5 mph NNW5.6 kmh NNW 3.5 mph5.6 kmh 29.60 in1002.4 mb - 0.02 in0.5 mm 0.25 in6.4 mm
11:55 AM 38.8°F3.8°C 36.7°F2.6°C 92% 4.6 mph NNW7.4 kmh NNW 5.8 mph9.3 kmh 29.60 in1002.4 mb - 0.03 in0.8 mm 0.26 in6.6 mm
12:00 PM 38.8°F3.8°C 36.7°F2.6°C 92% 5.8 mph N9.3 kmh N 6.9 mph11.1 kmh 29.61 in1002.7 mb - 0.03 in0.8 mm 0.26 in6.6 mm
12:10 PM 38.7°F3.7°C 36.5°F2.5°C 92% 6.9 mph N11.1 kmh N 8.1 mph13.0 kmh 29.61 in1002.7 mb - 0.03 in0.8 mm 0.26 in6.6 mm
12:15 PM 38.7°F3.7°C 36.3°F2.4°C 91% 3.5 mph NW5.6 kmh NW 3.5 mph5.6 kmh 29.61 in1002.7 mb - 0.03 in0.8 mm 0.26 in6.6 mm
12:20 PM 38.7°F3.7°C 36.5°F2.5°C 92% 3.5 mph NNW5.6 kmh NNW 4.6 mph7.4 kmh 29.61 in1002.7 mb - 0.03 in0.8 mm 0.26 in6.6 mm
12:25 PM 38.7°F3.7°C 36.3°F2.4°C 91% 5.8 mph NNW9.3 kmh NNW 5.8 mph9.3 kmh 29.61 in1002.7 mb - 0.03 in0.8 mm 0.28 in7.1 mm
12:30 PM 38.7°F3.7°C 36.3°F2.4°C 91% 6.9 mph N11.1 kmh N 10.4 mph16.7 kmh 29.61 in1002.7 mb - 0.03 in0.8 mm 0.28 in7.1 mm
12:35 PM 38.8°F3.8°C 36.4°F2.4°C 91% 6.9 mph NNW11.1 kmh NNW 8.1 mph13.0 kmh 29.61 in1002.7 mb - 0.03 in0.8 mm 0.28 in7.1 mm
12:40 PM 38.7°F3.7°C 36.0°F2.2°C 90% 9.2 mph NNW14.8 kmh NNW 10.4 mph16.7 kmh 29.61 in1002.7 mb - 0.03 in0.8 mm 0.28 in7.1 mm
12:45 PM 38.7°F3.7°C 36.0°F2.2°C 90% 6.9 mph NW11.1 kmh NW 8.1 mph13.0 kmh 29.62 in1003.0 mb - 0.04 in1.0 mm 0.29 in7.4 mm
12:50 PM 38.5°F3.6°C 35.8°F2.1°C 90% 9.2 mph NNW14.8 kmh NNW 8.1 mph13.0 kmh 29.62 in1003.0 mb - 0.04 in1.0 mm 0.29 in7.4 mm
12:55 PM 38.5°F3.6°C 35.8°F2.1°C 90% 8.1 mph NNW13.0 kmh NNW 12.7 mph20.4 kmh 29.62 in1003.0 mb - 0.03 in0.8 mm 0.29 in7.4 mm
01:00 PM 38.6°F3.7°C 35.9°F2.2°C 90% 4.6 mph NNW7.4 kmh NNW 3.5 mph5.6 kmh 29.62 in1003.0 mb - 0.03 in0.8 mm 0.29 in7.4 mm
01:10 PM 38.5°F3.6°C 35.5°F1.9°C 89% 6.9 mph NNW11.1 kmh NNW 6.9 mph11.1 kmh 29.62 in1003.0 mb - 0.03 in0.8 mm 0.29 in7.4 mm
01:15 PM 38.3°F3.5°C 35.3°F1.8°C 89% 9.2 mph N14.8 kmh N 10.4 mph16.7 kmh 29.62 in1003.0 mb - 0.03 in0.8 mm 0.29 in7.4 mm
01:20 PM 38.1°F3.4°C 35.2°F1.8°C 89% 6.9 mph NNE11.1 kmh NNE 8.1 mph13.0 kmh 29.62 in1003.0 mb - 0.03 in0.8 mm 0.29 in7.4 mm
01:25 PM 38.1°F3.4°C 35.2°F1.8°C 89% 5.8 mph NNE9.3 kmh NNE 5.8 mph9.3 kmh 29.62 in1003.0 mb - 0.01 in0.3 mm 0.29 in7.4 mm
01:30 PM 37.9°F3.3°C 34.9°F1.6°C 89% 6.9 mph N11.1 kmh N 8.1 mph13.0 kmh 29.63 in1003.4 mb - 0.03 in0.8 mm 0.31 in7.9 mm
01:35 PM 37.8°F3.2°C 34.2°F1.2°C 87% 4.6 mph NE7.4 kmh NE 5.8 mph9.3 kmh 29.63 in1003.4 mb - 0.03 in0.8 mm 0.31 in7.9 mm
01:40 PM 37.6°F3.1°C 34.1°F1.2°C 87% 5.8 mph N9.3 kmh N 8.1 mph13.0 kmh 29.63 in1003.4 mb - 0.03 in0.8 mm 0.31 in7.9 mm
01:45 PM 37.6°F3.1°C 34.1°F1.2°C 87% 4.6 mph NNE7.4 kmh NNE 5.8 mph9.3 kmh 29.63 in1003.4 mb - 0.03 in0.8 mm 0.31 in7.9 mm
01:50 PM 37.6°F3.1°C 34.3°F1.3°C 88% 4.6 mph 7.4 kmh 5.8 mph9.3 kmh 29.63 in1003.4 mb - 0.02 in0.5 mm 0.31 in7.9 mm
01:55 PM 37.6°F3.1°C 34.1°F1.2°C 87% 5.8 mph N9.3 kmh N 8.1 mph13.0 kmh 29.63 in1003.4 mb - 0.02 in0.5 mm 0.31 in7.9 mm
02:00 PM 37.6°F3.1°C 34.3°F1.3°C 88% 4.6 mph NNW7.4 kmh NNW 4.6 mph7.4 kmh 29.64 in1003.7 mb - 0.02 in0.5 mm 0.31 in7.9 mm
02:10 PM 37.6°F3.1°C 34.6°F1.4°C 89% 2.3 mph NNW3.7 kmh NNW 3.5 mph5.6 kmh 29.64 in1003.7 mb - 0.02 in0.5 mm 0.31 in7.9 mm
02:15 PM 37.6°F3.1°C 34.6°F1.4°C 89% 2.3 mph NNW3.7 kmh NNW 2.3 mph3.7 kmh 29.64 in1003.7 mb - 0.02 in0.5 mm 0.31 in7.9 mm
02:20 PM 37.4°F3.0°C 34.5°F1.4°C 89% 2.3 mph NNW3.7 kmh NNW 3.5 mph5.6 kmh 29.64 in1003.7 mb - 0.02 in0.5 mm 0.31 in7.9 mm
02:25 PM 37.6°F3.1°C 34.6°F1.4°C 89% 2.3 mph NNW3.7 kmh NNW 3.5 mph5.6 kmh 29.64 in1003.7 mb - 0.02 in0.5 mm 0.31 in7.9 mm
02:30 PM 37.6°F3.1°C 34.6°F1.4°C 89% 2.3 mph NNW3.7 kmh NNW 3.5 mph5.6 kmh 29.64 in1003.7 mb - 0.00 in0.0 mm 0.31 in7.9 mm
02:35 PM 37.6°F3.1°C 34.6°F1.4°C 89% 3.5 mph NW5.6 kmh NW 4.6 mph7.4 kmh 29.64 in1003.7 mb - 0.00 in0.0 mm 0.31 in7.9 mm
02:40 PM 37.6°F3.1°C 34.6°F1.4°C 89% 3.5 mph NNW5.6 kmh NNW 4.6 mph7.4 kmh 29.64 in1003.7 mb - 0.00 in0.0 mm 0.31 in7.9 mm
02:45 PM 37.6°F3.1°C 34.6°F1.4°C 89% 3.5 mph W5.6 kmh W 3.5 mph5.6 kmh 29.64 in1003.7 mb - 0.00 in0.0 mm 0.31 in7.9 mm
02:50 PM 37.8°F3.2°C 34.8°F1.6°C 89% 3.5 mph N5.6 kmh N 4.6 mph7.4 kmh 29.64 in1003.7 mb - 0.00 in0.0 mm 0.31 in7.9 mm
02:55 PM 37.8°F3.2°C 34.8°F1.6°C 89% 3.5 mph NNW5.6 kmh NNW 4.6 mph7.4 kmh 29.64 in1003.7 mb - 0.00 in0.0 mm 0.31 in7.9 mm
03:00 PM 37.8°F3.2°C 35.1°F1.7°C 90% 8.1 mph NW13.0 kmh NW 9.2 mph14.8 kmh 29.66 in1004.4 mb - 0.00 in0.0 mm 0.31 in7.9 mm
03:10 PM 37.6°F3.1°C 34.3°F1.3°C 88% 3.5 mph NW5.6 kmh NW 3.5 mph5.6 kmh 29.66 in1004.4 mb - 0.00 in0.0 mm 0.31 in7.9 mm
03:15 PM 37.6°F3.1°C 34.1°F1.2°C 87% 6.9 mph NW11.1 kmh NW 8.1 mph13.0 kmh 29.65 in1004.1 mb - 0.00 in0.0 mm 0.31 in7.9 mm
03:20 PM 37.4°F3.0°C 33.9°F1.1°C 87% 4.6 mph WNW7.4 kmh WNW 5.8 mph9.3 kmh 29.65 in1004.1 mb - 0.00 in0.0 mm 0.31 in7.9 mm
03:25 PM 37.2°F2.9°C 33.7°F0.9°C 87% 4.6 mph NW7.4 kmh NW 3.5 mph5.6 kmh 29.65 in1004.1 mb - 0.00 in0.0 mm 0.31 in7.9 mm
03:30 PM 37.0°F2.8°C 33.2°F0.7°C 86% 4.6 mph NNW7.4 kmh NNW 3.5 mph5.6 kmh 29.66 in1004.4 mb - 0.00 in0.0 mm 0.31 in7.9 mm
03:35 PM 37.0°F2.8°C 33.2°F0.7°C 86% 5.8 mph WNW9.3 kmh WNW 6.9 mph11.1 kmh 29.66 in1004.4 mb - 0.00 in0.0 mm 0.31 in7.9 mm
03:40 PM 36.7°F2.6°C 32.3°F0.2°C 84% 4.6 mph NNW7.4 kmh NNW 5.8 mph9.3 kmh 29.66 in1004.4 mb - 0.00 in0.0 mm 0.31 in7.9 mm
03:45 PM 36.7°F2.6°C 32.3°F0.2°C 84% 4.6 mph NW7.4 kmh NW 4.6 mph7.4 kmh 29.67 in1004.7 mb - 0.00 in0.0 mm 0.31 in7.9 mm
03:50 PM 36.5°F2.5°C 32.1°F0.1°C 84% 4.6 mph NW7.4 kmh NW 5.8 mph9.3 kmh 29.67 in1004.7 mb - 0.00 in0.0 mm 0.31 in7.9 mm
03:55 PM 36.5°F2.5°C 32.1°F0.1°C 84% 4.6 mph WNW7.4 kmh WNW 5.8 mph9.3 kmh 29.67 in1004.7 mb - 0.00 in0.0 mm 0.31 in7.9 mm
04:00 PM 36.3°F2.4°C 31.9°F-0.1°C 84% 5.8 mph NW9.3 kmh NW 6.9 mph11.1 kmh 29.68 in1005.1 mb - 0.00 in0.0 mm 0.31 in7.9 mm
04:10 PM 36.3°F2.4°C 31.7°F-0.2°C 83% 4.6 mph WNW7.4 kmh WNW 4.6 mph7.4 kmh 29.68 in1005.1 mb - 0.00 in0.0 mm 0.31 in7.9 mm
04:15 PM 36.1°F2.3°C 31.5°F-0.3°C 83% 3.5 mph NW5.6 kmh NW 3.5 mph5.6 kmh 29.68 in1005.1 mb - 0.00 in0.0 mm 0.31 in7.9 mm
04:20 PM 36.1°F2.3°C 31.5°F-0.3°C 83% 3.5 mph NW5.6 kmh NW 4.6 mph7.4 kmh 29.68 in1005.1 mb - 0.00 in0.0 mm 0.31 in7.9 mm
04:25 PM 36.1°F2.3°C 31.5°F-0.3°C 83% 4.6 mph NW7.4 kmh NW 3.5 mph5.6 kmh 29.68 in1005.1 mb - 0.00 in0.0 mm 0.31 in7.9 mm
04:30 PM 36.0°F2.2°C 31.3°F-0.4°C 83% 3.5 mph NW5.6 kmh NW 3.5 mph5.6 kmh 29.68 in1005.1 mb - 0.00 in0.0 mm 0.31 in7.9 mm
04:35 PM 36.0°F2.2°C 31.3°F-0.4°C 83% 3.5 mph NNW5.6 kmh NNW 4.6 mph7.4 kmh 29.68 in1005.1 mb - 0.00 in0.0 mm 0.31 in7.9 mm
04:40 PM 36.0°F2.2°C 31.3°F-0.4°C 83% 4.6 mph NW7.4 kmh NW 5.8 mph9.3 kmh 29.68 in1005.1 mb - 0.00 in0.0 mm 0.31 in7.9 mm
04:45 PM 36.0°F2.2°C 31.3°F-0.4°C 83% 3.5 mph NW5.6 kmh NW 3.5 mph5.6 kmh 29.69 in1005.4 mb - 0.00 in0.0 mm 0.31 in7.9 mm
04:50 PM 35.8°F2.1°C 31.1°F-0.5°C 83% 4.6 mph WNW7.4 kmh WNW 5.8 mph9.3 kmh 29.69 in1005.4 mb - 0.00 in0.0 mm 0.31 in7.9 mm
04:55 PM 35.8°F2.1°C 31.1°F-0.5°C 83% 4.6 mph WNW7.4 kmh WNW 4.6 mph7.4 kmh 29.69 in1005.4 mb - 0.00 in0.0 mm 0.31 in7.9 mm
05:00 PM 35.8°F2.1°C 31.1°F-0.5°C 83% 4.6 mph WNW7.4 kmh WNW 5.8 mph9.3 kmh 29.69 in1005.4 mb - 0.00 in0.0 mm 0.31 in7.9 mm
05:10 PM 35.8°F2.1°C 31.1°F-0.5°C 83% 4.6 mph WNW7.4 kmh WNW 4.6 mph7.4 kmh 29.69 in1005.4 mb - 0.00 in0.0 mm 0.31 in7.9 mm
05:15 PM 36.0°F2.2°C 31.0°F-0.6°C 82% 4.6 mph WNW7.4 kmh WNW 5.8 mph9.3 kmh 29.70 in1005.8 mb - 0.00 in0.0 mm 0.31 in7.9 mm
05:20 PM 36.0°F2.2°C 31.0°F-0.6°C 82% 4.6 mph NW7.4 kmh NW 4.6 mph7.4 kmh 29.70 in1005.8 mb - 0.00 in0.0 mm 0.31 in7.9 mm
05:25 PM 36.0°F2.2°C 30.7°F-0.7°C 81% 4.6 mph NW7.4 kmh NW 5.8 mph9.3 kmh 29.70 in1005.8 mb - 0.00 in0.0 mm 0.31 in7.9 mm
05:30 PM 36.1°F2.3°C 30.6°F-0.8°C 80% 4.6 mph NW7.4 kmh NW 5.8 mph9.3 kmh 29.70 in1005.8 mb - 0.00 in0.0 mm 0.31 in7.9 mm
05:35 PM 36.1°F2.3°C 30.6°F-0.8°C 80% 6.9 mph NW11.1 kmh NW 10.4 mph16.7 kmh 29.70 in1005.8 mb - 0.00 in0.0 mm 0.31 in7.9 mm
05:40 PM 36.1°F2.3°C 30.3°F-0.9°C 79% 5.8 mph NW9.3 kmh NW 5.8 mph9.3 kmh 29.70 in1005.8 mb - 0.00 in0.0 mm 0.31 in7.9 mm
05:45 PM 36.2°F2.3°C 30.0°F-1.1°C 78% 6.9 mph NW11.1 kmh NW 9.2 mph14.8 kmh 29.71 in1006.1 mb - 0.00 in0.0 mm 0.31 in7.9 mm
05:50 PM 36.1°F2.3°C 29.9°F-1.2°C 78% 5.8 mph NW9.3 kmh NW 6.9 mph11.1 kmh 29.71 in1006.1 mb - 0.00 in0.0 mm 0.31 in7.9 mm
05:55 PM 36.1°F2.3°C 29.9°F-1.2°C 78% 4.6 mph NNW7.4 kmh NNW 4.6 mph7.4 kmh 29.71 in1006.1 mb - 0.00 in0.0 mm 0.31 in7.9 mm
06:00 PM 36.0°F2.2°C 29.8°F-1.2°C 78% 4.6 mph NW7.4 kmh NW 5.8 mph9.3 kmh 29.71 in1006.1 mb - 0.00 in0.0 mm 0.31 in7.9 mm
06:10 PM 35.8°F2.1°C 29.6°F-1.3°C 78% 5.8 mph NW9.3 kmh NW 6.9 mph11.1 kmh 29.71 in1006.1 mb - 0.00 in0.0 mm 0.31 in7.9 mm
06:15 PM 35.8°F2.1°C 29.6°F-1.3°C 78% 5.8 mph NNW9.3 kmh NNW 5.8 mph9.3 kmh 29.72 in1006.4 mb - 0.00 in0.0 mm 0.31 in7.9 mm
06:20 PM 35.6°F2.0°C 29.4°F-1.4°C 78% 4.6 mph NNW7.4 kmh NNW 5.8 mph9.3 kmh 29.72 in1006.4 mb - 0.00 in0.0 mm 0.31 in7.9 mm
06:25 PM 35.6°F2.0°C 29.7°F-1.3°C 79% 3.5 mph WNW5.6 kmh WNW 4.6 mph7.4 kmh 29.72 in1006.4 mb - 0.00 in0.0 mm 0.31 in7.9 mm
06:30 PM 35.2°F1.8°C 29.4°F-1.4°C 79% 4.6 mph NNW7.4 kmh NNW 3.5 mph5.6 kmh 29.73 in1006.8 mb - 0.00 in0.0 mm 0.31 in7.9 mm
06:35 PM 35.2°F1.8°C 29.4°F-1.4°C 79% 3.5 mph N5.6 kmh N 4.6 mph7.4 kmh 29.73 in1006.8 mb - 0.00 in0.0 mm 0.31 in7.9 mm
06:40 PM 35.2°F1.8°C 29.4°F-1.4°C 79% 3.5 mph NNW5.6 kmh NNW 3.5 mph5.6 kmh 29.73 in1006.8 mb - 0.00 in0.0 mm 0.31 in7.9 mm
06:45 PM 35.2°F1.8°C 29.4°F-1.4°C 79% 3.5 mph NW5.6 kmh NW 3.5 mph5.6 kmh 29.73 in1006.8 mb - 0.00 in0.0 mm 0.31 in7.9 mm
06:50 PM 35.2°F1.8°C 29.4°F-1.4°C 79% 3.5 mph WNW5.6 kmh WNW 3.5 mph5.6 kmh 29.73 in1006.8 mb - 0.00 in0.0 mm 0.31 in7.9 mm
06:55 PM 35.2°F1.8°C 29.3°F-1.5°C 79% 3.5 mph WNW5.6 kmh WNW 4.6 mph7.4 kmh 29.73 in1006.8 mb - 0.00 in0.0 mm 0.31 in7.9 mm
07:00 PM 35.2°F1.8°C 29.4°F-1.4°C 79% 3.5 mph NNW5.6 kmh NNW 3.5 mph5.6 kmh 29.73 in1006.8 mb - 0.00 in0.0 mm 0.31 in7.9 mm
07:10 PM 34.9°F1.6°C 28.7°F-1.8°C 78% 3.5 mph WNW5.6 kmh WNW 4.6 mph7.4 kmh 29.73 in1006.8 mb - 0.00 in0.0 mm 0.31 in7.9 mm
07:15 PM 34.9°F1.6°C 28.7°F-1.8°C 78% 3.5 mph NW5.6 kmh NW 3.5 mph5.6 kmh 29.74 in1007.1 mb - 0.00 in0.0 mm 0.31 in7.9 mm
07:20 PM 34.6°F1.4°C 28.5°F-1.9°C 78% 2.3 mph NW3.7 kmh NW 3.5 mph5.6 kmh 29.74 in1007.1 mb - 0.00 in0.0 mm 0.31 in7.9 mm
07:25 PM 34.5°F1.4°C 28.4°F-2.0°C 78% 3.5 mph WNW5.6 kmh WNW 3.5 mph5.6 kmh 29.74 in1007.1 mb - 0.00 in0.0 mm 0.31 in7.9 mm
07:30 PM 34.5°F1.4°C 28.4°F-2.0°C 78% 2.3 mph WNW3.7 kmh WNW 3.5 mph5.6 kmh 29.74 in1007.1 mb - 0.00 in0.0 mm 0.31 in7.9 mm
07:35 PM 34.2°F1.2°C 28.0°F-2.2°C 78% 3.5 mph WNW5.6 kmh WNW 3.5 mph5.6 kmh 29.74 in1007.1 mb - 0.00 in0.0 mm 0.31 in7.9 mm
07:40 PM 34.0°F1.1°C 27.8°F-2.3°C 78% 3.5 mph WNW5.6 kmh WNW 3.5 mph5.6 kmh 29.74 in1007.1 mb - 0.00 in0.0 mm 0.31 in7.9 mm
07:45 PM 33.8°F1.0°C 27.7°F-2.4°C 78% 3.5 mph WNW5.6 kmh WNW 3.5 mph5.6 kmh 29.75 in1007.5 mb - 0.00 in0.0 mm 0.31 in7.9 mm
07:50 PM 33.8°F1.0°C 27.7°F-2.4°C 78% 3.5 mph WNW5.6 kmh WNW 3.5 mph5.6 kmh 29.75 in1007.5 mb - 0.00 in0.0 mm 0.31 in7.9 mm
07:55 PM 33.6°F0.9°C 27.5°F-2.5°C 78% 2.3 mph WNW3.7 kmh WNW 3.5 mph5.6 kmh 29.75 in1007.5 mb - 0.00 in0.0 mm 0.31 in7.9 mm
08:00 PM 33.6°F0.9°C 27.5°F-2.5°C 78% 2.3 mph NW3.7 kmh NW 3.5 mph5.6 kmh 29.74 in1007.1 mb - 0.00 in0.0 mm 0.31 in7.9 mm
08:10 PM 33.3°F0.7°C 27.1°F-2.7°C 78% 2.3 mph NW3.7 kmh NW 3.5 mph5.6 kmh 29.74 in1007.1 mb - 0.00 in0.0 mm 0.31 in7.9 mm
08:15 PM 33.4°F0.8°C 27.3°F-2.6°C 78% 3.5 mph NW5.6 kmh NW 4.6 mph7.4 kmh 29.75 in1007.5 mb - 0.00 in0.0 mm 0.31 in7.9 mm
08:20 PM 33.4°F0.8°C 26.6°F-3.0°C 76% 2.3 mph WNW3.7 kmh WNW 2.3 mph3.7 kmh 29.75 in1007.5 mb - 0.00 in0.0 mm 0.31 in7.9 mm
08:25 PM 33.4°F0.8°C 26.7°F-2.9°C 76% 3.5 mph NW5.6 kmh NW 3.5 mph5.6 kmh 29.75 in1007.5 mb - 0.00 in0.0 mm 0.31 in7.9 mm
08:30 PM 33.4°F0.8°C 26.7°F-2.9°C 76% 2.3 mph WNW3.7 kmh WNW 2.3 mph3.7 kmh 29.75 in1007.5 mb - 0.00 in0.0 mm 0.31 in7.9 mm
08:35 PM 33.3°F0.7°C 26.5°F-3.1°C 76% 3.5 mph WNW5.6 kmh WNW 3.5 mph5.6 kmh 29.75 in1007.5 mb - 0.00 in0.0 mm 0.31 in7.9 mm
08:40 PM 33.6°F0.9°C 26.9°F-2.8°C 76% 3.5 mph NW5.6 kmh NW 3.5 mph5.6 kmh 29.75 in1007.5 mb - 0.00 in0.0 mm 0.31 in7.9 mm
08:45 PM 33.6°F0.9°C 26.8°F-2.9°C 76% 4.6 mph NNW7.4 kmh NNW 4.6 mph7.4 kmh 29.76 in1007.8 mb - 0.00 in0.0 mm 0.31 in7.9 mm
08:50 PM 33.7°F0.9°C 26.3°F-3.2°C 74% 4.6 mph NNW7.4 kmh NNW 5.8 mph9.3 kmh 29.76 in1007.8 mb - 0.00 in0.0 mm 0.31 in7.9 mm
08:55 PM 33.5°F0.8°C 26.4°F-3.1°C 75% 3.5 mph NNW5.6 kmh NNW 3.5 mph5.6 kmh 29.76 in1007.8 mb - 0.00 in0.0 mm 0.31 in7.9 mm
09:00 PM 33.4°F0.8°C 26.4°F-3.1°C 75% 3.5 mph NW5.6 kmh NW 3.5 mph5.6 kmh 29.76 in1007.8 mb - 0.00 in0.0 mm 0.31 in7.9 mm
09:10 PM 33.6°F0.9°C 26.2°F-3.2°C 74% 5.8 mph NW9.3 kmh NW 6.9 mph11.1 kmh 29.76 in1007.8 mb - 0.00 in0.0 mm 0.31 in7.9 mm
09:15 PM 33.7°F0.9°C 26.0°F-3.3°C 73% 4.6 mph NNW7.4 kmh NNW 6.9 mph11.1 kmh 29.77 in1008.1 mb - 0.00 in0.0 mm 0.31 in7.9 mm
09:20 PM 33.4°F0.8°C 26.0°F-3.3°C 74% 3.5 mph NW5.6 kmh NW 5.8 mph9.3 kmh 29.77 in1008.1 mb - 0.00 in0.0 mm 0.31 in7.9 mm
09:25 PM 33.4°F0.8°C 26.0°F-3.3°C 74% 3.5 mph NNW5.6 kmh NNW 3.5 mph5.6 kmh 29.77 in1008.1 mb - 0.00 in0.0 mm 0.31 in7.9 mm
09:30 PM 33.6°F0.9°C 26.2°F-3.2°C 74% 4.6 mph NNW7.4 kmh NNW 5.8 mph9.3 kmh 29.77 in1008.1 mb - 0.00 in0.0 mm 0.31 in7.9 mm
09:35 PM 33.6°F0.9°C 26.2°F-3.2°C 74% 2.3 mph NW3.7 kmh NW 3.5 mph5.6 kmh 29.77 in1008.1 mb - 0.00 in0.0 mm 0.31 in7.9 mm
09:40 PM 33.5°F0.8°C 26.1°F-3.3°C 74% 2.3 mph WNW3.7 kmh WNW 2.3 mph3.7 kmh 29.77 in1008.1 mb - 0.00 in0.0 mm 0.31 in7.9 mm
09:45 PM 33.3°F0.7°C 26.3°F-3.2°C 75% 2.3 mph NNW3.7 kmh NNW 2.3 mph3.7 kmh 29.77 in1008.1 mb - 0.00 in0.0 mm 0.31 in7.9 mm
09:50 PM 33.4°F0.8°C 26.4°F-3.1°C 75% 2.3 mph NW3.7 kmh NW 3.5 mph5.6 kmh 29.77 in1008.1 mb - 0.00 in0.0 mm 0.31 in7.9 mm
09:55 PM 33.4°F0.8°C 26.4°F-3.1°C 75% 2.3 mph NNW3.7 kmh NNW 2.3 mph3.7 kmh 29.77 in1008.1 mb - 0.00 in0.0 mm 0.31 in7.9 mm
10:00 PM 33.3°F0.7°C 26.5°F-3.1°C 76% 3.5 mph NW5.6 kmh NW 3.5 mph5.6 kmh 29.78 in1008.5 mb - 0.00 in0.0 mm 0.31 in7.9 mm
10:10 PM 33.3°F0.7°C 26.5°F-3.1°C 76% 3.5 mph 5.6 kmh 3.5 mph5.6 kmh 29.78 in1008.5 mb - 0.00 in0.0 mm 0.31 in7.9 mm
10:15 PM 33.0°F0.6°C 26.2°F-3.2°C 76% 2.3 mph NNW3.7 kmh NNW 4.6 mph7.4 kmh 29.79 in1008.8 mb - 0.00 in0.0 mm 0.31 in7.9 mm
10:20 PM 32.7°F0.4°C 26.6°F-3.0°C 78% 3.5 mph NW5.6 kmh NW 3.5 mph5.6 kmh 29.79 in1008.8 mb - 0.00 in0.0 mm 0.31 in7.9 mm
10:25 PM 32.5°F0.3°C 26.4°F-3.1°C 78% 4.6 mph NNW7.4 kmh NNW 5.8 mph9.3 kmh 29.79 in1008.8 mb - 0.00 in0.0 mm 0.31 in7.9 mm
10:30 PM 32.5°F0.3°C 26.4°F-3.1°C 78% 3.5 mph NW5.6 kmh NW 3.5 mph5.6 kmh 29.78 in1008.5 mb - 0.00 in0.0 mm 0.31 in7.9 mm
10:35 PM 32.4°F0.2°C 26.3°F-3.2°C 78% 3.5 mph NW5.6 kmh NW 4.6 mph7.4 kmh 29.78 in1008.5 mb - 0.00 in0.0 mm 0.31 in7.9 mm
10:40 PM 32.2°F0.1°C 26.1°F-3.3°C 78% 2.3 mph WNW3.7 kmh WNW 2.3 mph3.7 kmh 29.78 in1008.5 mb - 0.00 in0.0 mm 0.31 in7.9 mm
10:45 PM 32.1°F0.1°C 26.0°F-3.3°C 78% 2.3 mph WNW3.7 kmh WNW 3.5 mph5.6 kmh 29.79 in1008.8 mb - 0.00 in0.0 mm 0.31 in7.9 mm
10:50 PM 32.0°F0.0°C 25.9°F-3.4°C 78% 2.3 mph NW3.7 kmh NW 2.3 mph3.7 kmh 29.79 in1008.8 mb - 0.00 in0.0 mm 0.31 in7.9 mm
10:55 PM 32.0°F0.0°C 25.9°F-3.4°C 78% 2.3 mph NNW3.7 kmh NNW 3.5 mph5.6 kmh 29.79 in1008.8 mb - 0.00 in0.0 mm 0.31 in7.9 mm
11:00 PM 32.0°F0.0°C 25.9°F-3.4°C 78% 2.3 mph NNW3.7 kmh NNW 3.5 mph5.6 kmh 29.79 in1008.8 mb - 0.00 in0.0 mm 0.31 in7.9 mm
11:10 PM 31.7°F-0.2°C 25.6°F-3.6°C 78% 3.5 mph NNW5.6 kmh NNW 3.5 mph5.6 kmh 29.79 in1008.8 mb - 0.00 in0.0 mm 0.31 in7.9 mm
11:15 PM 31.5°F-0.3°C 25.5°F-3.6°C 78% 3.5 mph NW5.6 kmh NW 3.5 mph5.6 kmh 29.79 in1008.8 mb - 0.00 in0.0 mm 0.31 in7.9 mm
11:20 PM 31.5°F-0.3°C 25.4°F-3.7°C 78% 3.5 mph NNW5.6 kmh NNW 4.6 mph7.4 kmh 29.79 in1008.8 mb - 0.00 in0.0 mm 0.31 in7.9 mm
11:25 PM 31.3°F-0.4°C 25.2°F-3.8°C 78% 3.5 mph NW5.6 kmh NW 4.6 mph7.4 kmh 29.79 in1008.8 mb - 0.00 in0.0 mm 0.31 in7.9 mm
11:30 PM 31.3°F-0.4°C 25.2°F-3.8°C 78% 4.6 mph NW7.4 kmh NW 4.6 mph7.4 kmh 29.79 in1008.8 mb - 0.00 in0.0 mm 0.31 in7.9 mm
11:35 PM 31.5°F-0.3°C 25.4°F-3.7°C 78% 1.2 mph NNW1.9 kmh NNW 2.3 mph3.7 kmh 29.79 in1008.8 mb - 0.00 in0.0 mm 0.31 in7.9 mm
11:40 PM 31.5°F-0.3°C 25.4°F-3.7°C 78% 2.3 mph N3.7 kmh N 3.5 mph5.6 kmh 29.79 in1008.8 mb - 0.00 in0.0 mm 0.31 in7.9 mm
11:45 PM 31.3°F-0.4°C 25.2°F-3.8°C 78% 3.5 mph NNW5.6 kmh NNW 4.6 mph7.4 kmh 29.79 in1008.8 mb - 0.00 in0.0 mm 0.31 in7.9 mm
11:50 PM 31.1°F-0.5°C 25.0°F-3.9°C 78% 3.5 mph W5.6 kmh W 3.5 mph5.6 kmh 29.79 in1008.8 mb - 0.00 in0.0 mm 0.31 in7.9 mm
11:55 PM 30.9°F-0.6°C 24.9°F-3.9°C 78% 2.3 mph NW3.7 kmh NW 2.3 mph3.7 kmh 29.79 in1008.8 mb - 0.00 in0.0 mm 0.31 in7.9 mm